TimeMST,TemperatureF,Dew PointF,Humidity,Sea Level PressureIn,VisibilityMPH,Wind Direction,Wind SpeedMPH,Gust SpeedMPH,PrecipitationIn,Events,Conditions,WindDirDegrees,DateUTC
12:56 AM,7.0,-0.0,73,30.44,-9999.0,NW,24.2,-,N/A,,Unknown,320,2013-11-21 07:56:00
1:56 AM,7.0,1.0,77,30.47,-9999.0,NW,19.6,-,N/A,,Unknown,320,2013-11-21 08:56:00
2:56 AM,6.1,-0.9,73,30.50,-9999.0,NW,17.3,-,N/A,,Unknown,320,2013-11-21 09:56:00
3:56 AM,5.0,-0.9,76,30.51,-9999.0,NW,16.1,-,N/A,,Unknown,320,2013-11-21 10:56:00
4:56 AM,5.0,-0.9,76,30.54,-9999.0,NW,9.2,-,N/A,,Unknown,320,2013-11-21 11:56:00
5:56 AM,3.9,-2.9,73,30.57,-9999.0,NW,12.7,-,N/A,,Unknown,310,2013-11-21 12:56:00
6:56 AM,3.9,-2.9,73,30.60,-9999.0,NW,6.9,-,N/A,,Unknown,320,2013-11-21 13:56:00
7:56 AM,5.0,-2.0,73,30.63,-9999.0,WNW,10.4,-,N/A,,Unknown,300,2013-11-21 14:56:00
8:56 AM,6.1,-0.9,73,30.64,-9999.0,NNW,10.4,-,N/A,,Unknown,330,2013-11-21 15:56:00
9:56 AM,9.0,-0.0,67,30.65,-9999.0,NW,10.4,-,N/A,,Unknown,310,2013-11-21 16:56:00
10:56 AM,12.0,1.0,61,30.64,-9999.0,WNW,8.1,-,N/A,,Unknown,300,2013-11-21 17:56:00
11:56 AM,15.1,1.0,54,30.62,-9999.0,WNW,6.9,-,N/A,,Unknown,290,2013-11-21 18:56:00
12:56 PM,18.0,1.9,50,30.61,-9999.0,West,9.2,-,N/A,,Unknown,270,2013-11-21 19:56:00
1:56 PM,19.9,1.9,46,30.60,-9999.0,WSW,8.1,-,N/A,,Unknown,250,2013-11-21 20:56:00
2:56 PM,21.0,1.0,42,30.61,-9999.0,WSW,10.4,-,N/A,,Unknown,250,2013-11-21 21:56:00
3:56 PM,18.0,-0.0,45,30.64,-9999.0,West,10.4,-,N/A,,Unknown,260,2013-11-21 22:56:00
4:56 PM,12.9,1.0,59,30.65,-9999.0,WSW,9.2,-,N/A,,Unknown,240,2013-11-21 23:56:00
5:56 PM,12.9,3.0,65,30.65,-9999.0,SSW,6.9,-,N/A,,Unknown,210,2013-11-22 00:56:00
6:56 PM,10.0,1.9,70,30.66,-9999.0,South,6.9,-,N/A,,Unknown,190,2013-11-22 01:56:00
7:56 PM,10.0,-0.0,64,30.63,-9999.0,SSW,10.4,-,N/A,,Unknown,200,2013-11-22 02:56:00
8:56 PM,10.0,1.0,67,30.63,-9999.0,SW,8.1,-,N/A,,Unknown,220,2013-11-22 03:56:00
9:56 PM,10.0,1.9,70,30.61,-9999.0,SW,10.4,-,N/A,,Unknown,220,2013-11-22 04:56:00
10:56 PM,12.0,3.9,70,30.58,-9999.0,WSW,10.4,-,N/A,,Unknown,240,2013-11-22 05:56:00
11:56 PM,14.0,3.9,64,30.56,-9999.0,West,11.5,-,N/A,,Unknown,260,2013-11-22 06:56:00